Time;durP1;ratioP1;P1;durP2;ratioP2;P2;SDS_P1;SDS_P2;PMS_P1;PMS_P2;Temp;Humidity;BMP_temperature;BMP_pressure;BME280_temperature;BME280_humidity;BME280_pressure;Samples;Min_cycle;Max_cycle;Signal;HPM_P1;HPM_P2
2021/01/09 00:01:24;;;;;;;18.87;10.90;;;4.90;80.90;;;;;;4991392;28;20034;-74
2021/01/09 00:03:49;;;;;;;16.77;9.70;;;4.90;80.90;;;;;;5010989;28;20038;-74
2021/01/09 00:06:15;;;;;;;15.67;9.03;;;4.80;81.00;;;;;;4994138;28;20061;-75
2021/01/09 00:08:40;;;;;;;16.37;10.57;;;4.80;80.90;;;;;;5008193;28;20038;-74
2021/01/09 00:11:06;;;;;;;19.27;11.73;;;4.80;80.90;;;;;;4987929;28;20138;-74
2021/01/09 00:13:32;;;;;;;17.47;10.20;;;4.80;81.10;;;;;;5021100;28;20030;-75
2021/01/09 00:15:58;;;;;;;18.63;10.70;;;4.70;81.30;;;;;;4994568;28;20488;-74
2021/01/09 00:18:24;;;;;;;20.30;11.50;;;4.70;81.40;;;;;;4996413;28;20054;-74
2021/01/09 00:20:50;;;;;;;23.17;12.50;;;4.80;81.50;;;;;;4976840;28;20038;-75
2021/01/09 00:23:16;;;;;;;21.33;11.13;;;4.80;81.40;;;;;;5018081;28;20504;-74
2021/01/09 00:25:41;;;;;;;19.40;11.47;;;4.80;81.40;;;;;;5012575;28;20132;-74
2021/01/09 00:28:07;;;;;;;20.17;11.33;;;4.80;81.20;;;;;;5013641;28;20030;-74
2021/01/09 00:30:33;;;;;;;24.57;13.60;;;4.80;80.90;;;;;;5014198;28;20030;-77
2021/01/09 00:32:58;;;;;;;23.03;12.67;;;4.90;81.00;;;;;;4996102;28;20034;-74
2021/01/09 00:35:24;;;;;;;21.23;11.20;;;4.90;80.90;;;;;;5015115;28;20050;-75
2021/01/09 00:37:50;;;;;;;24.70;12.80;;;4.80;80.90;;;;;;5006280;28;20029;-74
2021/01/09 00:40:16;;;;;;;24.37;12.87;;;4.80;81.10;;;;;;4992495;28;20210;-75
2021/01/09 00:42:44;;;;;;;22.00;11.13;;;4.70;81.10;;;;;;4994059;28;20495;-75
2021/01/09 00:45:10;;;;;;;19.10;11.30;;;4.70;81.10;;;;;;5013394;28;20026;-75
2021/01/09 00:47:36;;;;;;;19.17;11.13;;;4.70;81.10;;;;;;5003060;28;20132;-74
2021/01/09 00:50:03;;;;;;;20.33;11.00;;;4.70;81.20;;;;;;5012821;28;20141;-76
2021/01/09 00:52:29;;;;;;;20.97;11.60;;;4.70;81.30;;;;;;4994323;28;20026;-75
2021/01/09 00:54:54;;;;;;;21.63;11.57;;;4.70;81.40;;;;;;4973565;28;20176;-74
2021/01/09 00:57:20;;;;;;;18.73;11.03;;;4.70;81.40;;;;;;4994259;28;20117;-75
2021/01/09 00:59:48;;;;;;;21.40;11.87;;;4.60;81.40;;;;;;5008892;28;20038;-75
2021/01/09 01:02:13;;;;;;;18.93;11.53;;;4.70;81.50;;;;;;5010738;28;20122;-74
2021/01/09 01:04:39;;;;;;;20.77;11.13;;;4.60;81.40;;;;;;5017133;28;20120;-74
2021/01/09 01:07:05;;;;;;;17.03;10.40;;;4.70;81.30;;;;;;5012495;28;20056;-74
2021/01/09 01:09:30;;;;;;;23.43;11.90;;;4.70;81.30;;;;;;5000313;28;20026;-74
2021/01/09 01:11:56;;;;;;;16.37;10.17;;;4.70;81.20;;;;;;4994276;28;20401;-74
2021/01/09 01:14:21;;;;;;;22.97;11.57;;;4.70;81.10;;;;;;5017981;28;20228;-74
2021/01/09 01:16:50;;;;;;;20.67;10.73;;;4.70;81.10;;;;;;4999509;28;20475;-74
2021/01/09 01:19:16;;;;;;;19.63;11.40;;;4.70;81.20;;;;;;5008201;28;20087;-74
2021/01/09 01:21:42;;;;;;;20.93;11.33;;;4.70;81.30;;;;;;5012705;28;20464;-74
2021/01/09 01:24:08;;;;;;;22.80;12.60;;;4.70;81.40;;;;;;4991665;28;20516;-74
2021/01/09 01:26:35;;;;;;;24.47;13.17;;;4.60;81.40;;;;;;5010042;28;20061;-74
2021/01/09 01:29:00;;;;;;;22.60;13.73;;;4.60;81.40;;;;;;5012599;28;20034;-74
2021/01/09 01:31:27;;;;;;;17.87;10.30;;;4.60;81.40;;;;;;5002790;28;20026;-74
2021/01/09 01:33:52;;;;;;;22.97;12.40;;;4.60;81.40;;;;;;5021395;28;20145;-74
2021/01/09 01:36:19;;;;;;;19.00;11.53;;;4.50;81.40;;;;;;5009345;28;20229;-74
2021/01/09 01:38:44;;;;;;;19.07;11.23;;;4.50;81.40;;;;;;5006799;28;20030;-74
2021/01/09 01:41:10;;;;;;;22.17;10.77;;;4.40;81.50;;;;;;5012425;28;20045;-74
2021/01/09 01:43:38;;;;;;;18.57;10.80;;;4.40;81.50;;;;;;4998089;28;20080;-74
2021/01/09 01:46:06;;;;;;;18.13;9.63;;;4.40;81.60;;;;;;5027270;28;20053;-74
2021/01/09 01:48:33;;;;;;;16.37;8.97;;;4.30;81.60;;;;;;5011458;28;20503;-74
2021/01/09 01:50:59;;;;;;;17.00;9.87;;;4.30;81.60;;;;;;5012658;28;20384;-74
2021/01/09 01:53:27;;;;;;;19.57;10.17;;;4.30;81.60;;;;;;5011504;28;20026;-74
2021/01/09 01:55:53;;;;;;;17.23;9.23;;;4.30;81.60;;;;;;5011244;28;20041;-74
2021/01/09 01:58:18;;;;;;;18.37;9.97;;;4.30;81.60;;;;;;5008435;28;20097;-74
2021/01/09 02:00:48;;;;;;;15.77;9.50;;;4.30;81.50;;;;;;4979416;28;20042;-74
2021/01/09 02:03:18;;;;;;;16.43;9.43;;;4.30;81.50;;;;;;5009623;28;20080;-75
2021/01/09 02:06:14;;;;;;;15.47;9.77;;;4.40;81.50;;;;;;5005835;28;20421;-74
2021/01/09 02:08:56;;;;;;;17.03;10.47;;;4.40;81.40;;;;;;4994687;28;20125;-74
2021/01/09 02:11:41;;;;;;;17.13;9.73;;;4.40;81.30;;;;;;5010406;28;20030;-74
2021/01/09 02:14:15;;;;;;;16.13;9.47;;;4.40;81.40;;;;;;5001426;28;20037;-74
2021/01/09 02:16:42;;;;;;;19.63;11.35;;;4.40;81.50;;;;;;4998554;28;20072;-74
2021/01/09 02:19:08;;;;;;;14.37;8.40;;;4.40;81.50;;;;;;4998071;28;20033;-74
2021/01/09 02:21:40;;;;;;;15.67;9.77;;;4.40;81.60;;;;;;5006465;28;20022;-75
2021/01/09 02:24:17;;;;;;;15.40;8.73;;;4.30;81.50;;;;;;4999145;28;20037;-74
2021/01/09 02:26:44;;;;;;;14.33;9.00;;;4.30;81.60;;;;;;5010811;28;20568;-74
2021/01/09 02:29:11;;;;;;;16.53;9.43;;;4.40;81.60;;;;;;5011065;28;20065;-74
2021/01/09 02:31:57;;;;;;;14.10;9.27;;;4.40;81.60;;;;;;5010048;28;20041;-73
2021/01/09 02:34:25;;;;;;;15.47;9.83;;;4.30;81.60;;;;;;5008908;28;20056;-74
2021/01/09 02:36:51;;;;;;;15.33;9.67;;;4.30;81.60;;;;;;5014241;28;20061;-74
2021/01/09 02:39:18;;;;;;;17.00;10.00;;;4.30;81.60;;;;;;4996942;28;20136;-74
2021/01/09 02:41:47;;;;;;;15.30;9.60;;;4.20;81.40;;;;;;4994221;28;20030;-74
2021/01/09 02:44:14;;;;;;;16.27;8.43;;;4.20;81.40;;;;;;5011034;28;20026;-76
2021/01/09 02:46:40;;;;;;;14.83;9.50;;;4.20;81.30;;;;;;4994013;28;20341;-74
2021/01/09 02:49:06;;;;;;;14.80;9.10;;;4.20;81.20;;;;;;5000212;28;20113;-75
2021/01/09 02:51:32;;;;;;;14.00;9.17;;;4.20;81.10;;;;;;5007084;28;20042;-75
2021/01/09 02:53:58;;;;;;;15.57;9.67;;;4.20;81.20;;;;;;5009522;28;20491;-74
2021/01/09 02:56:24;;;;;;;14.73;9.07;;;4.20;81.10;;;;;;5012045;28;20026;-74
2021/01/09 02:58:49;;;;;;;14.57;10.17;;;4.20;81.20;;;;;;5012572;28;20045;-74
2021/01/09 03:01:15;;;;;;;15.37;9.87;;;4.20;81.30;;;;;;4991935;28;20026;-75
2021/01/09 03:03:41;;;;;;;15.87;10.13;;;4.20;81.40;;;;;;5010033;28;20060;-74
2021/01/09 03:06:07;;;;;;;15.07;10.33;;;4.20;81.40;;;;;;5002867;28;20065;-74
2021/01/09 03:08:33;;;;;;;16.07;10.17;;;4.20;81.40;;;;;;4992052;28;20297;-74
2021/01/09 03:10:59;;;;;;;17.23;9.77;;;4.10;81.30;;;;;;4992585;28;20460;-75
2021/01/09 03:13:24;;;;;;;15.27;9.23;;;4.10;81.40;;;;;;4992745;28;20061;-75
2021/01/09 03:15:50;;;;;;;15.43;10.70;;;4.20;81.40;;;;;;4992970;28;20053;-74
2021/01/09 03:18:15;;;;;;;15.60;9.30;;;4.20;81.20;;;;;;4992340;28;20076;-75
2021/01/09 03:20:41;;;;;;;18.10;10.73;;;4.20;81.10;;;;;;5007446;28;20108;-74
2021/01/09 03:23:07;;;;;;;17.87;11.40;;;4.20;81.00;;;;;;5009743;28;20110;-75
2021/01/09 03:25:32;;;;;;;16.77;10.03;;;4.20;81.00;;;;;;4991520;28;20046;-74
2021/01/09 03:27:58;;;;;;;17.03;9.97;;;4.20;81.00;;;;;;4992845;28;20085;-75
2021/01/09 03:30:24;;;;;;;16.60;10.30;;;4.10;81.00;;;;;;4995400;28;20119;-74
2021/01/09 03:32:50;;;;;;;16.63;11.00;;;4.10;81.20;;;;;;5002787;28;20033;-74
2021/01/09 03:35:16;;;;;;;17.43;10.73;;;4.00;81.50;;;;;;5005804;28;20068;-75
2021/01/09 03:37:41;;;;;;;14.10;9.47;;;3.90;81.70;;;;;;5011423;28;20061;-74
2021/01/09 03:40:07;;;;;;;17.53;9.77;;;3.90;81.90;;;;;;4998837;28;20109;-74
2021/01/09 03:42:33;;;;;;;16.50;10.17;;;3.90;82.20;;;;;;4992131;28;20056;-74
2021/01/09 03:44:59;;;;;;;17.40;10.33;;;3.90;82.30;;;;;;5008201;28;20030;-75
2021/01/09 03:47:25;;;;;;;16.03;9.97;;;3.80;82.30;;;;;;4988525;28;20042;-74
2021/01/09 03:49:51;;;;;;;16.23;10.60;;;3.70;82.30;;;;;;5006105;28;20037;-74
2021/01/09 03:52:17;;;;;;;18.50;10.63;;;3.70;82.40;;;;;;5011518;28;20156;-75
2021/01/09 03:54:42;;;;;;;15.57;10.30;;;3.70;82.50;;;;;;5010759;28;20038;-74
2021/01/09 03:57:08;;;;;;;16.33;10.57;;;3.70;82.70;;;;;;5009453;28;20041;-74
2021/01/09 03:59:34;;;;;;;15.23;9.93;;;3.70;82.80;;;;;;5009769;28;20412;-74
2021/01/09 04:01:59;;;;;;;16.63;9.87;;;3.70;82.80;;;;;;4983380;28;20433;-74
2021/01/09 04:04:26;;;;;;;15.60;10.13;;;3.70;82.80;;;;;;4956818;28;20038;-74
2021/01/09 04:06:51;;;;;;;15.33;9.07;;;3.70;82.70;;;;;;5002521;28;20042;-74
2021/01/09 04:09:17;;;;;;;14.27;8.93;;;3.70;82.70;;;;;;5005303;28;20368;-75
2021/01/09 04:11:43;;;;;;;14.67;9.27;;;3.70;82.60;;;;;;4992734;28;20033;-74
2021/01/09 04:14:08;;;;;;;11.10;8.10;;;3.70;82.50;;;;;;5006212;28;20046;-74
2021/01/09 04:16:35;;;;;;;12.50;8.37;;;3.70;82.40;;;;;;5007550;28;20030;-74
2021/01/09 04:19:01;;;;;;;15.70;9.87;;;3.70;82.30;;;;;;5007181;28;20065;-75
2021/01/09 04:21:27;;;;;;;13.57;9.73;;;3.80;82.20;;;;;;5009676;28;20113;-74
2021/01/09 04:23:52;;;;;;;14.57;9.70;;;3.80;82.00;;;;;;5008453;28;20191;-75
2021/01/09 04:26:18;;;;;;;15.27;10.37;;;3.80;82.10;;;;;;5007922;28;20503;-76
2021/01/09 04:28:44;;;;;;;16.27;10.40;;;3.80;82.10;;;;;;4989661;28;20030;-74
2021/01/09 04:31:14;;;;;;;16.23;10.63;;;3.80;82.20;;;;;;4989518;28;20058;-74
2021/01/09 04:33:39;;;;;;;14.53;9.67;;;3.80;82.30;;;;;;4996631;28;20036;-74
2021/01/09 04:36:05;;;;;;;14.50;9.03;;;3.80;82.40;;;;;;5006358;28;20094;-74
2021/01/09 04:38:31;;;;;;;13.80;9.50;;;3.70;82.30;;;;;;5005379;28;20057;-74
2021/01/09 04:41:00;;;;;;;15.33;9.57;;;3.80;82.40;;;;;;4989599;28;20061;-74
2021/01/09 04:43:26;;;;;;;14.93;9.93;;;3.80;82.30;;;;;;5011872;28;20109;-76
2021/01/09 04:45:52;;;;;;;14.27;10.20;;;3.80;82.40;;;;;;5006841;28;20503;-75
2021/01/09 04:48:19;;;;;;;17.20;10.53;;;3.80;82.40;;;;;;5013619;28;20137;-76
2021/01/09 04:50:50;;;;;;;14.70;10.70;;;3.80;82.40;;;;;;5008570;28;20061;-74
2021/01/09 04:53:17;;;;;;;14.87;10.63;;;3.80;82.30;;;;;;5006503;28;20034;-74
2021/01/09 04:55:44;;;;;;;15.17;10.30;;;3.80;82.30;;;;;;5009117;28;20144;-74
2021/01/09 04:58:10;;;;;;;15.37;9.80;;;3.80;82.20;;;;;;5011273;28;20041;-74
2021/01/09 05:00:36;;;;;;;16.50;10.73;;;3.80;82.20;;;;;;5001579;28;20026;-75
2021/01/09 05:03:03;;;;;;;14.33;9.53;;;3.80;82.10;;;;;;4990288;28;20401;-74
2021/01/09 05:05:28;;;;;;;16.40;10.70;;;3.80;82.10;;;;;;5003861;28;20110;-74
2021/01/09 05:07:54;;;;;;;14.47;8.60;;;3.70;82.00;;;;;;5013263;28;20053;-74
2021/01/09 05:10:20;;;;;;;15.10;9.80;;;3.70;82.10;;;;;;4984130;28;20334;-75
2021/01/09 05:12:46;;;;;;;14.37;8.90;;;3.70;82.10;;;;;;5003380;28;20038;-74
2021/01/09 05:15:12;;;;;;;12.27;9.33;;;3.70;82.10;;;;;;5011595;28;20038;-74
2021/01/09 05:17:38;;;;;;;12.00;8.67;;;3.60;82.00;;;;;;4995140;28;20540;-74
2021/01/09 05:20:06;;;;;;;14.90;8.93;;;3.60;82.00;;;;;;4993368;28;20166;-74
2021/01/09 05:22:34;;;;;;;12.77;9.20;;;4.70;82.60;;;;;;5011396;28;20041;-74
2021/01/09 05:25:01;;;;;;;12.43;7.97;;;3.60;82.00;;;;;;5014300;28;20039;-75
2021/01/09 05:27:27;;;;;;;12.20;7.97;;;3.60;81.80;;;;;;4985916;28;20054;-74
2021/01/09 05:29:56;;;;;;;11.73;8.23;;;3.60;81.80;;;;;;5008058;28;20033;-74
2021/01/09 05:32:23;;;;;;;12.53;7.27;;;3.70;81.50;;;;;;5006039;28;20057;-75
2021/01/09 05:34:51;;;;;;;12.23;8.30;;;3.80;81.20;;;;;;5013182;28;20058;-74
2021/01/09 05:37:19;;;;;;;11.83;7.60;;;3.90;80.60;;;;;;5012528;28;20467;-74
2021/01/09 05:39:56;;;;;;;11.27;7.60;;;4.00;80.10;;;;;;5000934;28;20034;-74
2021/01/09 05:42:26;;;;;;;12.30;8.27;;;4.10;79.50;;;;;;4999150;28;20061;-74
2021/01/09 05:44:54;;;;;;;11.83;7.93;;;4.20;79.10;;;;;;5008036;28;20045;-75
2021/01/09 05:47:23;;;;;;;11.17;7.30;;;4.20;78.70;;;;;;5011176;28;20057;-74
2021/01/09 05:49:50;;;;;;;11.00;7.40;;;4.30;78.60;;;;;;5013128;28;20212;-75
2021/01/09 05:52:16;;;;;;;11.27;7.57;;;4.30;78.40;;;;;;5012843;28;20025;-74
2021/01/09 05:54:42;;;;;;;13.10;8.47;;;4.30;78.30;;;;;;5003786;28;20053;-74
2021/01/09 05:57:14;;;;;;;15.00;8.80;;;4.40;78.40;;;;;;5010185;28;20026;-74
2021/01/09 05:59:40;;;;;;;13.43;8.83;;;4.20;78.70;;;;;;5009000;28;20064;-74
2021/01/09 06:02:08;;;;;;;12.43;8.80;;;4.10;79.00;;;;;;5008736;28;20026;-74
2021/01/09 06:04:41;;;;;;;14.00;9.30;;;4.00;79.50;;;;;;4990855;28;20054;-74
2021/01/09 06:07:20;;;;;;;14.00;8.87;;;3.90;80.10;;;;;;5004707;28;20041;-74
2021/01/09 06:10:15;;;;;;;15.27;9.17;;;3.80;80.70;;;;;;5005379;28;20038;-74
2021/01/09 06:13:00;;;;;;;16.30;9.80;;;3.80;81.20;;;;;;5005009;28;20042;-75
2021/01/09 06:15:29;;;;;;;14.87;9.33;;;3.70;81.50;;;;;;4995996;28;20125;-75
2021/01/09 06:17:55;;;;;;;15.37;8.90;;;3.70;81.70;;;;;;5012675;28;20026;-75
2021/01/09 06:20:21;;;;;;;15.93;10.50;;;3.70;81.90;;;;;;5009727;28;20476;-75
2021/01/09 06:22:48;;;;;;;16.27;9.40;;;3.70;82.10;;;;;;4999212;28;20027;-75
2021/01/09 06:25:14;;;;;;;17.00;10.53;;;3.70;82.30;;;;;;4983968;28;20030;-74
2021/01/09 06:27:44;;;;;;;15.70;9.67;;;3.70;82.50;;;;;;5004912;28;20065;-74
2021/01/09 06:30:12;;;;;;;15.43;9.07;;;3.70;82.60;;;;;;5008720;28;20117;-75
2021/01/09 06:32:40;;;;;;;16.47;10.43;;;3.70;82.80;;;;;;5012727;28;20375;-74
2021/01/09 06:35:08;;;;;;;15.03;9.70;;;3.80;82.80;;;;;;5011896;28;20038;-75
2021/01/09 06:37:34;;;;;;;13.97;9.70;;;3.90;82.80;;;;;;5007863;28;20126;-74
2021/01/09 06:40:01;;;;;;;17.63;10.20;;;3.90;82.80;;;;;;4993287;28;20022;-75
2021/01/09 06:42:27;;;;;;;14.00;9.07;;;4.00;82.80;;;;;;5010561;28;20033;-76
2021/01/09 06:44:54;;;;;;;15.30;9.60;;;4.10;82.60;;;;;;5009336;28;20021;-75
2021/01/09 06:47:30;;;;;;;16.47;10.67;;;4.10;82.30;;;;;;5002527;28;20111;-74
2021/01/09 06:50:18;;;;;;;16.60;10.20;;;4.20;82.30;;;;;;4993977;28;20041;-74
2021/01/09 06:52:56;;;;;;;16.20;9.20;;;4.20;82.30;;;;;;5002510;28;20030;-74
2021/01/09 06:55:37;;;;;;;15.57;9.50;;;4.20;82.30;;;;;;5012119;28;20030;-75
2021/01/09 06:58:29;;;;;;;17.00;9.90;;;4.20;82.20;;;;;;5008121;28;20038;-74
2021/01/09 07:01:18;;;;;;;16.33;9.00;;;4.20;82.10;;;;;;4982978;28;20131;-75
2021/01/09 07:03:45;;;;;;;22.03;11.50;;;4.20;82.00;;;;;;5006880;28;20022;-75
2021/01/09 07:06:10;;;;;;;18.63;10.30;;;4.30;82.10;;;;;;5010345;28;20087;-75
2021/01/09 07:08:36;;;;;;;15.50;9.50;;;4.30;82.00;;;;;;5012337;28;20033;-75
2021/01/09 07:11:07;;;;;;;18.47;10.83;;;4.30;81.80;;;;;;5011499;28;20026;-74
2021/01/09 07:13:32;;;;;;;19.80;10.03;;;4.30;81.60;;;;;;5009367;28;20022;-76
2021/01/09 07:16:14;;;;;;;16.63;9.70;;;4.30;81.60;;;;;;5010603;28;20040;-74
2021/01/09 07:18:48;;;;;;;17.27;9.53;;;4.30;81.50;;;;;;5011145;28;20040;-74
2021/01/09 07:21:15;;;;;;;;;;;4.30;82.10;;;;;;5009920;28;20029;-74
2021/01/09 07:23:45;;;;;;;17.50;9.10;;;4.40;81.20;;;;;;5007481;28;19917;-75
2021/01/09 07:26:12;;;;;;;17.90;8.90;;;4.50;81.00;;;;;;5011894;28;20117;-74
2021/01/09 07:28:41;;;;;;;21.10;10.07;;;4.50;81.00;;;;;;4993416;28;20041;-75
2021/01/09 07:31:13;;;;;;;18.30;9.90;;;4.50;81.10;;;;;;5013273;28;21904;-75
2021/01/09 07:33:42;;;;;;;20.03;9.47;;;4.50;81.30;;;;;;5010164;28;20049;-75
2021/01/09 07:36:10;;;;;;;16.20;9.53;;;4.50;81.40;;;;;;5009600;28;20443;-75
2021/01/09 07:38:44;;;;;;;16.10;8.83;;;4.50;81.30;;;;;;5011118;28;20034;-75
2021/01/09 07:41:31;;;;;;;21.25;10.93;;;4.50;81.50;;;;;;5011486;28;20160;-74
2021/01/09 07:44:18;;;;;;;19.67;10.47;;;4.50;81.50;;;;;;5012071;28;20026;-74
2021/01/09 07:46:50;;;;;;;17.50;10.50;;;4.50;81.60;;;;;;5012656;28;20034;-75
2021/01/09 07:49:26;;;;;;;12.67;8.40;;;4.50;81.60;;;;;;5007241;28;20118;-75
2021/01/09 07:51:54;;;;;;;14.23;9.10;;;4.50;81.50;;;;;;5010606;28;20026;-75
2021/01/09 07:54:42;;;;;;;16.30;8.37;;;4.50;81.30;;;;;;5010381;28;20109;-75
2021/01/09 07:57:21;;;;;;;15.27;8.63;;;4.60;81.20;;;;;;5014124;28;20078;-75
2021/01/09 08:00:08;;;;;;;16.80;10.40;;;4.70;81.10;;;;;;5005405;28;20026;-75
2021/01/09 08:02:36;;;;;;;16.93;9.57;;;4.70;80.90;;;;;;5002218;28;20467;-76
2021/01/09 08:05:08;;;;;;;17.10;9.80;;;4.70;80.90;;;;;;5009310;28;20515;-75
2021/01/09 08:07:38;;;;;;;16.63;10.60;;;4.80;81.10;;;;;;5010997;28;20088;-76
2021/01/09 08:10:16;;;;;;;21.50;11.40;;;4.80;81.10;;;;;;5011819;28;20661;-75
2021/01/09 08:12:42;;;;;;;19.87;11.17;;;4.80;81.10;;;;;;5008964;28;20109;-75
2021/01/09 08:15:07;;;;;;;15.50;9.90;;;4.90;81.10;;;;;;4993419;28;20125;-74
2021/01/09 08:17:33;;;;;;;16.83;9.47;;;5.00;81.00;;;;;;5011586;28;20053;-75
2021/01/09 08:20:25;;;;;;;14.37;8.63;;;5.00;80.90;;;;;;5013604;28;20029;-75
2021/01/09 08:22:59;;;;;;;15.87;8.50;;;5.10;80.80;;;;;;5012239;28;20092;-75
2021/01/09 08:25:28;;;;;;;19.87;8.23;;;5.10;80.50;;;;;;5013046;28;20125;-75
2021/01/09 08:27:58;;;;;;;17.07;9.13;;;5.20;80.50;;;;;;5014376;28;20033;-75
2021/01/09 08:30:26;;;;;;;16.37;8.97;;;5.20;80.50;;;;;;5016504;28;20036;-75
2021/01/09 08:33:12;;;;;;;14.90;8.10;;;5.20;80.50;;;;;;5014917;28;20348;-74
2021/01/09 08:35:48;;;;;;;15.90;8.20;;;5.30;80.30;;;;;;5013593;28;20490;-75
2021/01/09 08:38:14;;;;;;;19.23;7.73;;;5.40;80.00;;;;;;5012018;28;20026;-76
2021/01/09 08:40:42;;;;;;;14.93;8.80;;;5.40;79.80;;;;;;5014824;28;20395;-74
2021/01/09 08:43:10;;;;;;;13.87;8.27;;;5.50;79.60;;;;;;4998611;28;20065;-75
2021/01/09 08:45:39;;;;;;;16.50;8.13;;;5.50;79.40;;;;;;5014137;28;20034;-75
2021/01/09 08:48:09;;;;;;;13.50;8.50;;;5.50;79.70;;;;;;5004382;28;20026;-75
2021/01/09 08:50:42;;;;;;;14.87;8.27;;;5.50;79.60;;;;;;5012910;28;20061;-75
2021/01/09 08:53:09;;;;;;;16.80;9.03;;;5.70;79.80;;;;;;5016857;28;20049;-75
2021/01/09 08:55:37;;;;;;;18.90;9.47;;;5.90;79.40;;;;;;5010710;28;20350;-75
2021/01/09 08:58:07;;;;;;;11.47;7.20;;;6.00;79.10;;;;;;5023217;28;20128;-76
2021/01/09 09:00:33;;;;;;;12.50;7.40;;;6.30;78.90;;;;;;5012466;28;20499;-76
2021/01/09 09:03:00;;;;;;;12.97;7.67;;;6.50;77.90;;;;;;4994142;28;20152;-75
2021/01/09 09:05:30;;;;;;;12.10;6.53;;;6.70;77.30;;;;;;5006295;28;20060;-74
2021/01/09 09:07:58;;;;;;;14.17;7.03;;;6.80;76.10;;;;;;4995780;28;20041;-76
2021/01/09 09:10:24;;;;;;;13.60;7.00;;;6.70;75.30;;;;;;4994534;28;20035;-74
2021/01/09 09:12:51;;;;;;;11.43;7.00;;;6.50;75.10;;;;;;5005824;28;20045;-74
2021/01/09 09:15:27;;;;;;;9.30;6.17;;;6.40;75.60;;;;;;4984387;28;20132;-74
2021/01/09 09:17:55;;;;;;;11.60;7.17;;;6.20;75.80;;;;;;4993016;28;20448;-74
2021/01/09 09:20:23;;;;;;;15.50;6.70;;;6.10;76.30;;;;;;5002484;28;20025;-75
2021/01/09 09:22:49;;;;;;;15.20;7.53;;;5.90;76.70;;;;;;4980528;28;20122;-73
2021/01/09 09:25:24;;;;;;;12.37;5.83;;;5.80;77.00;;;;;;5011712;28;20197;-76
2021/01/09 09:27:50;;;;;;;12.27;6.60;;;5.80;77.30;;;;;;5007550;28;20843;-73
2021/01/09 09:30:18;;;;;;;11.37;5.77;;;5.80;77.50;;;;;;4992945;28;20062;-72
2021/01/09 09:32:45;;;;;;;10.97;5.67;;;5.80;77.70;;;;;;5006330;28;20029;-72
2021/01/09 09:35:28;;;;;;;9.53;5.97;;;5.90;77.60;;;;;;5012051;28;20030;-73
2021/01/09 09:37:56;;;;;;;13.33;6.23;;;6.00;77.60;;;;;;5008258;28;20161;-73
2021/01/09 09:40:24;;;;;;;8.47;5.27;;;6.00;77.10;;;;;;4996723;28;20027;-76
2021/01/09 09:42:50;;;;;;;11.10;5.40;;;6.00;76.70;;;;;;5004926;28;20035;-82
2021/01/09 09:45:16;;;;;;;14.60;5.70;;;6.00;76.50;;;;;;4996153;28;20038;-79
2021/01/09 09:47:49;;;;;;;9.87;5.47;;;6.00;76.50;;;;;;5008583;28;20057;-81
2021/01/09 09:50:23;;;;;;;16.87;6.13;;;6.00;76.60;;;;;;5001854;28;20030;-78
2021/01/09 09:53:06;;;;;;;15.90;5.73;;;5.90;76.40;;;;;;5003887;28;20045;-74
2021/01/09 09:55:32;;;;;;;9.00;5.25;;;5.90;76.50;;;;;;5001011;28;20080;-90
2021/01/09 09:58:08;;;;;;;11.40;5.53;;;6.00;76.70;;;;;;5000820;28;20036;-82
2021/01/09 10:00:44;;;;;;;13.13;6.30;;;6.00;76.50;;;;;;4997012;28;20037;-74
2021/01/09 10:03:10;;;;;;;10.00;6.03;;;6.10;76.40;;;;;;5005171;28;20049;-82
2021/01/09 10:05:36;;;;;;;11.07;5.93;;;6.20;76.30;;;;;;5016697;28;20034;-78
2021/01/09 10:08:15;;;;;;;10.87;5.53;;;6.30;75.80;;;;;;4990402;28;20089;-84
2021/01/09 10:10:49;;;;;;;14.80;6.73;;;6.40;75.70;;;;;;4994847;28;20542;-77
2021/01/09 10:13:27;;;;;;;12.50;5.03;;;6.50;75.50;;;;;;5006144;28;20090;-77
2021/01/09 10:15:52;;;;;;;11.17;6.40;;;6.70;75.50;;;;;;5005609;28;20053;-74
2021/01/09 10:18:18;;;;;;;8.60;5.10;;;6.80;75.20;;;;;;5001423;28;20077;-76
2021/01/09 10:20:43;;;;;;;10.03;4.90;;;6.90;74.90;;;;;;5008785;28;20476;-75
2021/01/09 10:23:10;;;;;;;9.90;5.77;;;7.00;74.80;;;;;;5009346;28;20462;-77
2021/01/09 10:25:35;;;;;;;11.68;4.95;;;7.10;74.50;;;;;;4996211;28;20038;-75
2021/01/09 10:28:01;;;;;;;13.60;5.35;;;7.10;73.90;;;;;;5013896;28;20036;-74
2021/01/09 10:30:27;;;;;;;10.18;4.60;;;7.10;73.60;;;;;;5006318;28;20065;-74
2021/01/09 10:32:52;;;;;;;11.23;5.93;;;7.00;73.60;;;;;;5008745;28;20088;-74
2021/01/09 10:35:18;;;;;;;10.95;5.03;;;6.90;73.60;;;;;;5013904;28;20042;-74
2021/01/09 10:37:43;;;;;;;11.93;6.13;;;6.90;73.50;;;;;;5005150;28;20034;-74
2021/01/09 10:40:09;;;;;;;9.23;4.33;;;6.80;73.60;;;;;;5008725;28;20196;-74
2021/01/09 10:42:35;;;;;;;9.43;5.13;;;6.70;73.90;;;;;;5008118;28;20116;-74
2021/01/09 10:45:01;;;;;;;11.57;5.30;;;6.60;74.10;;;;;;5001153;28;20431;-74
2021/01/09 10:47:26;;;;;;;9.00;5.03;;;6.60;74.30;;;;;;4979685;28;20540;-74
2021/01/09 10:49:52;;;;;;;10.00;5.10;;;6.60;74.40;;;;;;4980286;28;20064;-75
2021/01/09 10:52:18;;;;;;;15.70;6.63;;;6.60;74.80;;;;;;5009377;28;20292;-75
2021/01/09 10:54:43;;;;;;;11.40;5.07;;;6.70;75.20;;;;;;5005973;28;20172;-75
2021/01/09 10:57:09;;;;;;;10.53;5.27;;;6.90;75.10;;;;;;4997459;28;20087;-74
2021/01/09 10:59:34;;;;;;;11.63;4.80;;;7.10;74.70;;;;;;5010313;28;20068;-75
2021/01/09 11:02:03;;;;;;;10.55;4.22;;;7.20;74.20;;;;;;5010069;28;20045;-74
2021/01/09 11:04:29;;;;;;;8.73;3.92;;;7.20;73.90;;;;;;4994200;28;20493;-74
2021/01/09 11:06:59;;;;;;;10.63;5.17;;;7.20;74.00;;;;;;4991465;28;20054;-75
2021/01/09 11:09:25;;;;;;;9.88;4.22;;;7.20;74.30;;;;;;5004549;28;20048;-75
2021/01/09 11:11:51;;;;;;;13.80;4.65;;;7.40;74.50;;;;;;4993588;28;20043;-73
2021/01/09 11:14:17;;;;;;;8.63;4.15;;;7.60;74.30;;;;;;5011028;28;20088;-74
2021/01/09 11:16:43;;;;;;;8.20;4.25;;;7.80;74.10;;;;;;5008938;28;20455;-74
2021/01/09 11:19:10;;;;;;;10.40;3.90;;;8.10;73.60;;;;;;5008505;28;20029;-73
2021/01/09 11:21:37;;;;;;;8.68;4.70;;;8.10;72.80;;;;;;4994046;28;20038;-73
2021/01/09 11:24:06;;;;;;;7.40;3.80;;;8.00;72.70;;;;;;4984437;28;20057;-74
2021/01/09 11:26:31;;;;;;;12.40;4.53;;;7.90;73.00;;;;;;4999046;28;20500;-74
2021/01/09 11:28:57;;;;;;;6.00;2.95;;;7.80;73.50;;;;;;5003408;28;20038;-74
2021/01/09 11:31:23;;;;;;;8.50;3.35;;;7.70;74.00;;;;;;4992304;28;20038;-74
2021/01/09 11:33:49;;;;;;;11.15;3.50;;;7.80;74.30;;;;;;5009398;28;20038;-73
2021/01/09 11:36:16;;;;;;;7.90;2.83;;;7.80;74.50;;;;;;5002884;28;20057;-73
2021/01/09 11:38:41;;;;;;;11.73;3.40;;;7.90;74.60;;;;;;4990978;28;20124;-73
2021/01/09 11:41:07;;;;;;;7.50;3.72;;;8.00;74.40;;;;;;5010043;28;20133;-74
2021/01/09 11:43:33;;;;;;;6.88;2.70;;;8.20;74.30;;;;;;5009517;28;20387;-74
2021/01/09 11:46:00;;;;;;;8.65;3.10;;;8.30;73.90;;;;;;5008219;28;20038;-74
2021/01/09 11:48:27;;;;;;;8.48;3.00;;;8.40;73.00;;;;;;4989633;28;20029;-74
2021/01/09 11:50:54;;;;;;;14.02;3.42;;;8.50;73.00;;;;;;5009698;28;20045;-73
2021/01/09 11:53:21;;;;;;;6.90;3.55;;;8.60;72.40;;;;;;4984217;28;20048;-76
2021/01/09 11:55:50;;;;;;;7.95;3.55;;;8.60;72.30;;;;;;4994229;28;20042;-73
2021/01/09 11:58:19;;;;;;;11.00;3.67;;;8.70;72.00;;;;;;4997103;28;20080;-74
2021/01/09 12:00:45;;;;;;;11.07;3.15;;;8.60;71.50;;;;;;5014569;28;20061;-73
2021/01/09 12:03:12;;;;;;;10.35;3.53;;;8.50;71.50;;;;;;5011462;28;20422;-74
2021/01/09 12:05:37;;;;;;;7.72;2.88;;;8.50;71.60;;;;;;5011608;28;20399;-73
2021/01/09 12:08:04;;;;;;;9.82;3.35;;;8.40;71.20;;;;;;5001370;28;20035;-73
2021/01/09 12:10:30;;;;;;;8.05;3.60;;;8.40;71.50;;;;;;5011948;28;20502;-73
2021/01/09 12:12:56;;;;;;;8.23;2.90;;;8.30;71.50;;;;;;5013293;28;20026;-73
2021/01/09 12:15:22;;;;;;;10.38;3.25;;;8.30;71.50;;;;;;5008237;28;20440;-73
2021/01/09 12:17:47;;;;;;;6.25;3.13;;;8.40;71.60;;;;;;4994633;28;20038;-73
2021/01/09 12:20:13;;;;;;;5.97;2.72;;;8.40;71.50;;;;;;5011230;28;20222;-73
2021/01/09 12:22:39;;;;;;;9.30;3.08;;;8.50;71.30;;;;;;4994935;28;20080;-73
2021/01/09 12:25:06;;;;;;;6.35;3.13;;;8.50;71.40;;;;;;5008747;28;20109;-73
2021/01/09 12:27:32;;;;;;;6.90;2.75;;;8.60;71.60;;;;;;4986635;28;20034;-74
2021/01/09 12:29:58;;;;;;;9.25;3.22;;;8.70;70.90;;;;;;5012973;28;20022;-73
2021/01/09 12:32:23;;;;;;;7.90;3.25;;;8.70;70.50;;;;;;5008937;28;20457;-73
2021/01/09 12:34:49;;;;;;;6.40;2.75;;;8.60;70.50;;;;;;5004243;28;20069;-74
2021/01/09 12:37:15;;;;;;;11.02;3.50;;;8.60;70.80;;;;;;4993557;28;20056;-74
2021/01/09 12:39:40;;;;;;;8.93;2.97;;;8.60;70.60;;;;;;5008705;28;20389;-74
2021/01/09 12:42:10;;;;;;;10.10;3.10;;;8.60;70.50;;;;;;5003014;28;20531;-73
2021/01/09 12:44:36;;;;;;;12.15;3.88;;;8.60;70.80;;;;;;4996688;28;20575;-74
2021/01/09 12:47:02;;;;;;;7.55;2.83;;;8.70;70.90;;;;;;5008457;28;20061;-73
2021/01/09 12:49:28;;;;;;;7.10;3.22;;;8.80;70.70;;;;;;5002600;28;20109;-73
2021/01/09 12:51:58;;;;;;;9.45;3.03;;;8.90;70.00;;;;;;5011019;28;20037;-73